createdAt,value
2022-11-13T00:01:16.925Z,15.40
2022-11-13T00:03:43.687Z,14.50
2022-11-13T00:06:11.592Z,13.67
2022-11-13T00:08:38.611Z,14.80
2022-11-13T00:11:11.541Z,14.20
2022-11-13T00:13:38.626Z,14.30
2022-11-13T00:16:07.981Z,14.37
2022-11-13T00:18:35.627Z,13.40
2022-11-13T00:21:06.800Z,14.57
2022-11-13T00:23:34.935Z,13.87
2022-11-13T00:26:06.210Z,13.80
2022-11-13T00:28:33.116Z,14.37
2022-11-13T00:31:01.503Z,14.30
2022-11-13T00:33:54.883Z,13.83
2022-11-13T00:36:17.359Z,14.73
2022-11-13T00:38:44.011Z,14.03
2022-11-13T00:41:11.095Z,14.20
2022-11-13T00:43:37.678Z,14.93
2022-11-13T00:46:04.664Z,14.60
2022-11-13T00:48:31.215Z,13.67
2022-11-13T00:50:58.216Z,13.10
2022-11-13T00:53:24.911Z,12.90
2022-11-13T00:55:51.579Z,14.00
2022-11-13T00:58:18.371Z,13.67
2022-11-13T01:00:46.388Z,12.43
2022-11-13T01:03:13.901Z,12.73
2022-11-13T01:05:42.867Z,12.23
2022-11-13T01:08:10.385Z,13.27
2022-11-13T01:10:45.597Z,12.33
2022-11-13T01:13:14.648Z,12.43
2022-11-13T01:15:43.122Z,11.80
2022-11-13T01:18:10.565Z,11.77
2022-11-13T01:20:37.536Z,13.33
2022-11-13T01:23:04.448Z,12.60
2022-11-13T01:25:31.596Z,12.10
2022-11-13T01:27:58.429Z,11.70
2022-11-13T01:30:25.055Z,12.00
2022-11-13T01:32:51.634Z,11.83
2022-11-13T01:35:18.278Z,11.77
2022-11-13T01:37:44.839Z,13.00
2022-11-13T01:40:13.252Z,11.77
2022-11-13T01:42:39.946Z,11.10
2022-11-13T01:45:44.828Z,10.70
2022-11-13T01:48:12.318Z,11.07
2022-11-13T01:50:39.526Z,11.10
2022-11-13T01:53:07.319Z,11.30
2022-11-13T01:55:33.958Z,11.27
2022-11-13T01:58:02.411Z,10.63
2022-11-13T02:00:28.941Z,10.03
2022-11-13T02:02:55.470Z,10.73
2022-11-13T02:05:22.086Z,11.37
2022-11-13T02:07:48.934Z,10.90
2022-11-13T02:10:15.628Z,10.40
2022-11-13T02:12:50.413Z,10.13
2022-11-13T02:15:20.684Z,11.00
2022-11-13T02:18:05.664Z,16.10
2022-11-13T02:20:47.811Z,10.73
2022-11-13T02:23:22.174Z,10.93
2022-11-13T02:25:52.604Z,10.27
2022-11-13T02:28:19.191Z,9.83
2022-11-13T02:30:46.192Z,11.37
2022-11-13T02:33:26.146Z,10.23
2022-11-13T02:35:53.052Z,11.10
2022-11-13T02:38:19.966Z,10.83
2022-11-13T02:40:46.841Z,10.73
2022-11-13T02:43:13.398Z,10.57
2022-11-13T02:45:41.081Z,10.50
2022-11-13T02:48:07.882Z,10.30
2022-11-13T02:50:35.929Z,11.00
2022-11-13T02:53:03.747Z,11.07
2022-11-13T02:55:30.514Z,11.80
2022-11-13T02:57:57.069Z,12.40
2022-11-13T03:00:24.350Z,12.17
2022-11-13T03:02:50.902Z,13.27
2022-11-13T03:05:17.517Z,13.50
2022-11-13T03:07:44.208Z,12.83
2022-11-13T03:10:11.746Z,13.37
2022-11-13T03:12:38.904Z,13.40
2022-11-13T03:15:07.224Z,13.20
2022-11-13T03:17:34.415Z,13.20
2022-11-13T03:20:01.081Z,14.07
2022-11-13T03:22:28.044Z,13.13
2022-11-13T03:24:54.598Z,12.70
2022-11-13T03:27:21.604Z,13.97
2022-11-13T03:29:48.409Z,13.60
2022-11-13T03:32:15.307Z,13.70
2022-11-13T03:34:42.090Z,13.17
2022-11-13T03:37:08.855Z,13.43
2022-11-13T03:39:35.774Z,12.73
2022-11-13T03:42:02.361Z,13.20
2022-11-13T03:44:28.944Z,12.77
2022-11-13T03:46:55.468Z,12.13
2022-11-13T03:49:22.005Z,13.37
2022-11-13T03:51:48.545Z,13.23
2022-11-13T03:54:15.077Z,12.20
2022-11-13T03:56:41.633Z,13.07
2022-11-13T03:59:08.234Z,13.00
2022-11-13T04:01:34.882Z,13.97
2022-11-13T04:04:01.640Z,12.53
2022-11-13T04:06:28.181Z,13.50
2022-11-13T04:08:54.778Z,12.90
2022-11-13T04:11:21.311Z,13.23
2022-11-13T04:13:47.839Z,12.67
2022-11-13T04:16:14.346Z,12.30
2022-11-13T04:18:40.865Z,12.30
2022-11-13T04:21:07.408Z,11.93
2022-11-13T04:23:33.954Z,11.27
2022-11-13T04:26:00.664Z,11.37
2022-11-13T04:28:27.656Z,11.37
2022-11-13T04:30:55.440Z,11.53
2022-11-13T04:33:22.290Z,9.87
2022-11-13T04:35:49.307Z,11.83
2022-11-13T04:38:15.885Z,10.47
2022-11-13T04:40:43.018Z,10.93
2022-11-13T04:43:12.909Z,10.37
2022-11-13T04:45:39.464Z,12.03
2022-11-13T04:48:06.043Z,10.73
2022-11-13T04:50:32.699Z,12.33
2022-11-13T04:52:59.287Z,11.87
2022-11-13T04:55:25.843Z,12.43
2022-11-13T04:57:55.474Z,11.33
2022-11-13T05:00:22.271Z,11.17
2022-11-13T05:02:49.109Z,11.50
2022-11-13T05:05:15.754Z,12.23
2022-11-13T05:07:42.527Z,12.20
2022-11-13T05:10:09.583Z,11.10
2022-11-13T05:12:36.259Z,12.97
2022-11-13T05:15:03.482Z,12.07
2022-11-13T05:17:30.062Z,12.40
2022-11-13T05:19:56.600Z,12.20
2022-11-13T05:22:23.147Z,11.23
2022-11-13T05:24:49.670Z,13.13
2022-11-13T05:27:17.723Z,13.33
2022-11-13T05:29:44.822Z,12.80
2022-11-13T05:32:11.394Z,12.97
2022-11-13T05:34:38.008Z,13.47
2022-11-13T05:37:04.580Z,12.40
2022-11-13T05:39:31.162Z,14.07
2022-11-13T05:41:57.705Z,13.37
2022-11-13T05:44:24.250Z,14.57
2022-11-13T05:46:50.797Z,15.13
2022-11-13T05:49:17.357Z,15.40
2022-11-13T05:51:43.904Z,16.60
2022-11-13T05:54:11.347Z,16.33
2022-11-13T05:56:38.018Z,16.27
2022-11-13T05:59:05.315Z,16.50
2022-11-13T06:01:35.196Z,16.87
2022-11-13T06:04:02.793Z,17.20
2022-11-13T06:06:31.126Z,16.70
2022-11-13T06:08:59.828Z,17.07
2022-11-13T06:11:27.754Z,16.53
2022-11-13T06:13:55.836Z,15.33
2022-11-13T06:16:25.392Z,15.50
2022-11-13T06:18:57.160Z,14.47
2022-11-13T06:21:27.210Z,14.63
2022-11-13T06:23:53.838Z,13.10
2022-11-13T06:26:23.382Z,13.07
2022-11-13T06:28:50.701Z,13.00
2022-11-13T06:31:23.546Z,12.83
2022-11-13T06:33:50.098Z,12.93
2022-11-13T06:36:19.585Z,12.53
2022-11-13T06:38:47.853Z,12.80
2022-11-13T06:41:16.138Z,13.67
2022-11-13T06:43:43.099Z,13.37
2022-11-13T06:46:13.185Z,13.50
2022-11-13T06:48:39.895Z,13.93
2022-11-13T06:51:09.575Z,13.60
2022-11-13T06:53:36.136Z,14.17
2022-11-13T06:56:06.081Z,14.50
2022-11-13T06:58:33.109Z,15.63
2022-11-13T07:01:06.072Z,15.17
2022-11-13T07:03:32.643Z,15.63
2022-11-13T07:06:03.311Z,15.63
2022-11-13T07:08:30.281Z,16.63
2022-11-13T07:10:57.759Z,16.20
2022-11-13T07:13:25.507Z,15.33
2022-11-13T07:15:52.388Z,14.73
2022-11-13T07:18:23.760Z,15.93
2022-11-13T07:20:50.658Z,16.87
2022-11-13T07:23:17.203Z,16.63
2022-11-13T07:25:43.763Z,17.40
2022-11-13T07:28:10.314Z,16.17
2022-11-13T07:30:36.932Z,16.30
2022-11-13T07:33:04.477Z,16.83
2022-11-13T07:35:31.236Z,17.03
2022-11-13T07:37:58.820Z,14.37
2022-11-13T07:40:25.942Z,13.63
2022-11-13T07:43:02.930Z,15.60
2022-11-13T07:45:29.683Z,15.10
2022-11-13T07:48:04.091Z,15.20
2022-11-13T07:50:35.820Z,15.17
2022-11-13T07:53:06.085Z,15.03
2022-11-13T07:55:34.534Z,16.63
2022-11-13T07:58:02.323Z,16.80
2022-11-13T08:00:30.978Z,15.90
2022-11-13T08:02:57.532Z,16.43
2022-11-13T08:05:24.254Z,17.03
2022-11-13T08:07:52.347Z,17.40
2022-11-13T08:10:20.182Z,17.17
2022-11-13T08:12:47.587Z,17.37
2022-11-13T08:15:14.495Z,15.30
2022-11-13T08:17:41.241Z,14.97
2022-11-13T08:20:09.070Z,15.37
2022-11-13T08:22:35.693Z,15.73
2022-11-13T08:25:02.373Z,16.43
2022-11-13T08:27:29.132Z,15.53
2022-11-13T08:29:55.799Z,17.33
2022-11-13T08:32:22.680Z,16.60
2022-11-13T08:34:49.376Z,17.83
2022-11-13T08:37:16.110Z,17.77
2022-11-13T08:39:42.726Z,17.80
2022-11-13T08:42:09.310Z,18.83
2022-11-13T08:44:35.903Z,19.00
2022-11-13T08:47:02.475Z,18.13
2022-11-13T08:49:29.077Z,17.90
2022-11-13T08:51:56.071Z,18.57
2022-11-13T08:54:22.599Z,18.33
2022-11-13T08:56:54.744Z,18.67
2022-11-13T08:59:27.109Z,18.67
2022-11-13T09:01:59.182Z,18.13
2022-11-13T09:04:26.631Z,17.60
2022-11-13T09:06:53.509Z,19.43
2022-11-13T09:09:20.594Z,19.47
2022-11-13T09:11:47.300Z,20.00
2022-11-13T09:14:14.105Z,19.43
2022-11-13T09:16:41.168Z,19.37
2022-11-13T09:19:08.162Z,18.87
2022-11-13T09:21:34.736Z,18.73
2022-11-13T09:24:01.369Z,20.57
2022-11-13T09:26:28.018Z,20.60
2022-11-13T09:28:54.618Z,19.87
2022-11-13T09:31:21.198Z,19.87
2022-11-13T09:33:47.759Z,17.80
2022-11-13T09:36:15.769Z,18.53
2022-11-13T09:38:43.282Z,18.47
2022-11-13T09:41:12.939Z,17.30
2022-11-13T09:43:56.748Z,16.77
2022-11-13T09:46:42.153Z,17.43
2022-11-13T09:49:11.429Z,16.93
2022-11-13T09:51:38.957Z,16.70
2022-11-13T09:54:09.779Z,16.87
2022-11-13T09:56:48.355Z,16.90
2022-11-13T09:59:39.677Z,15.77
2022-11-13T10:02:37.712Z,15.53
2022-11-13T10:05:49.014Z,15.07
2022-11-13T10:08:23.211Z,15.47
2022-11-13T10:11:09.561Z,16.00
2022-11-13T10:13:46.199Z,15.90
2022-11-13T10:16:31.240Z,15.33
2022-11-13T10:19:08.511Z,15.30
2022-11-13T10:21:44.931Z,16.27
2022-11-13T10:24:19.431Z,15.00
2022-11-13T10:26:46.045Z,14.83
2022-11-13T10:29:18.473Z,15.73
2022-11-13T10:31:50.860Z,14.50
2022-11-13T10:34:18.898Z,15.10
2022-11-13T10:37:00.323Z,14.83
2022-11-13T10:39:26.891Z,15.40
2022-11-13T10:41:55.119Z,13.40
2022-11-13T10:44:25.721Z,14.27
2022-11-13T10:47:15.081Z,14.33
2022-11-13T10:49:41.872Z,13.10
2022-11-13T10:52:23.703Z,13.23
2022-11-13T10:54:51.052Z,13.97
2022-11-13T10:57:27.928Z,13.17
2022-11-13T10:59:54.525Z,13.40
2022-11-13T11:02:23.715Z,14.00
2022-11-13T11:05:02.308Z,14.00
2022-11-13T11:07:29.240Z,12.83
2022-11-13T11:09:55.939Z,13.47
2022-11-13T11:12:30.709Z,14.10
2022-11-13T11:15:00.864Z,12.77
2022-11-13T11:17:53.817Z,12.77
2022-11-13T11:20:36.214Z,11.90
2022-11-13T11:23:16.994Z,12.20
2022-11-13T11:25:54.250Z,10.80
2022-11-13T11:28:36.212Z,12.63
2022-11-13T11:31:21.718Z,12.17
2022-11-13T11:33:53.298Z,12.03
2022-11-13T11:36:33.220Z,12.63
2022-11-13T11:39:07.874Z,13.00
2022-11-13T11:41:51.563Z,12.63
2022-11-13T11:45:03.108Z,13.37
2022-11-13T11:47:29.692Z,13.37
2022-11-13T11:49:56.651Z,11.80
2022-11-13T11:52:45.730Z,12.00
2022-11-13T11:55:19.771Z,11.83
2022-11-13T11:58:09.150Z,10.53
2022-11-13T12:00:39.711Z,10.90
2022-11-13T12:03:28.312Z,11.23
2022-11-13T12:06:24.108Z,11.50
2022-11-13T12:09:14.135Z,11.20
2022-11-13T12:11:56.828Z,11.37
2022-11-13T12:14:57.350Z,12.20
2022-11-13T12:17:50.145Z,11.80
2022-11-13T12:20:42.614Z,12.03
2022-11-13T12:23:21.088Z,12.73
2022-11-13T12:25:59.277Z,11.87
2022-11-13T12:28:53.251Z,11.87
2022-11-13T12:31:51.526Z,12.47
2022-11-13T12:34:23.669Z,13.20
2022-11-13T12:36:51.162Z,13.13
2022-11-13T12:39:44.172Z,13.30
2022-11-13T12:42:35.830Z,13.03
2022-11-13T12:45:08.557Z,12.67
2022-11-13T12:47:36.251Z,13.43
2022-11-13T12:50:24.263Z,13.70
2022-11-13T12:53:02.390Z,12.77
2022-11-13T12:55:32.042Z,13.67
2022-11-13T12:58:10.993Z,13.27
2022-11-13T13:00:51.384Z,13.33
2022-11-13T13:03:41.681Z,12.47
2022-11-13T13:06:16.392Z,13.03
2022-11-13T13:09:14.816Z,12.67
2022-11-13T13:12:12.519Z,12.37
2022-11-13T13:14:52.775Z,12.50
2022-11-13T13:17:22.639Z,13.20
2022-11-13T13:20:01.199Z,12.00
2022-11-13T13:22:31.878Z,12.80
2022-11-13T13:25:02.139Z,12.80
2022-11-13T13:27:32.645Z,12.63
2022-11-13T13:29:59.450Z,11.63
2022-11-13T13:32:42.643Z,12.43
2022-11-13T13:35:19.882Z,13.03
2022-11-13T13:38:01.035Z,11.93
2022-11-13T13:41:06.391Z,11.57
2022-11-13T13:44:18.199Z,11.83
2022-11-13T13:46:44.864Z,12.17
2022-11-13T13:49:18.374Z,11.87
2022-11-13T13:51:48.945Z,10.90
2022-11-13T13:54:19.848Z,12.43
2022-11-13T13:56:47.296Z,12.07
2022-11-13T13:59:28.264Z,11.90
2022-11-13T14:02:00.283Z,12.13
2022-11-13T14:04:29.305Z,11.97
2022-11-13T14:07:00.981Z,11.97
2022-11-13T14:09:29.285Z,11.60
2022-11-13T14:12:04.768Z,12.23
2022-11-13T14:14:34.547Z,11.30
2022-11-13T14:17:02.978Z,11.13
2022-11-13T14:19:29.535Z,10.80
2022-11-13T14:22:01.224Z,11.87
2022-11-13T14:24:47.136Z,12.07
2022-11-13T14:27:18.767Z,12.37
2022-11-13T14:29:51.590Z,12.47
2022-11-13T14:32:34.395Z,11.50
2022-11-13T14:35:04.778Z,11.63
2022-11-13T14:37:37.561Z,12.03
2022-11-13T14:40:27.212Z,12.57
2022-11-13T14:42:58.541Z,12.17
2022-11-13T14:45:30.894Z,11.73
2022-11-13T14:48:04.589Z,12.10
2022-11-13T14:50:36.349Z,11.70
2022-11-13T14:53:08.030Z,11.57
2022-11-13T14:55:50.312Z,11.97
2022-11-13T14:58:30.740Z,12.13
2022-11-13T15:00:58.857Z,11.53
2022-11-13T15:03:27.063Z,12.70
2022-11-13T15:05:54.067Z,12.17
2022-11-13T15:08:20.922Z,12.27
2022-11-13T15:10:47.733Z,11.93
2022-11-13T15:13:16.543Z,12.30
2022-11-13T15:15:43.415Z,12.67
2022-11-13T15:18:16.250Z,13.23
2022-11-13T15:20:44.607Z,12.50
2022-11-13T15:23:15.202Z,12.80
2022-11-13T15:25:42.488Z,11.83
2022-11-13T15:28:09.375Z,13.20
2022-11-13T15:30:36.129Z,12.47
2022-11-13T15:33:02.987Z,14.23
2022-11-13T15:35:29.546Z,12.57
2022-11-13T15:37:56.610Z,13.73
2022-11-13T15:40:23.261Z,12.70
2022-11-13T15:42:50.230Z,12.87
2022-11-13T15:45:17.266Z,13.33
2022-11-13T15:47:44.416Z,13.10
2022-11-13T15:50:15.508Z,13.63
2022-11-13T15:52:49.335Z,13.30
2022-11-13T15:55:28.727Z,13.97
2022-11-13T15:57:56.048Z,14.10
2022-11-13T16:00:25.066Z,14.63
2022-11-13T16:02:55.157Z,15.13
2022-11-13T16:05:27.365Z,14.23
2022-11-13T16:07:53.990Z,15.27
2022-11-13T16:10:22.417Z,16.63
2022-11-13T16:12:49.094Z,16.43
2022-11-13T16:15:17.017Z,17.37
2022-11-13T16:17:50.465Z,17.03
2022-11-13T16:20:18.071Z,17.00
2022-11-13T16:22:45.136Z,17.27
2022-11-13T16:25:14.731Z,18.27
2022-11-13T16:27:41.413Z,17.70
2022-11-13T16:30:20.183Z,18.50
2022-11-13T16:32:47.435Z,18.03
2022-11-13T16:35:15.746Z,18.27
2022-11-13T16:37:42.567Z,18.67
2022-11-13T16:40:30.216Z,18.50
2022-11-13T16:42:57.592Z,18.47
2022-11-13T16:45:24.136Z,18.60
2022-11-13T16:47:50.807Z,18.97
2022-11-13T16:50:19.041Z,19.73
2022-11-13T16:52:45.670Z,19.63
2022-11-13T16:55:12.317Z,19.73
2022-11-13T16:57:39.531Z,19.47
2022-11-13T17:00:08.849Z,21.73
2022-11-13T17:02:35.423Z,20.43
2022-11-13T17:05:01.979Z,20.33
2022-11-13T17:07:28.595Z,21.17
2022-11-13T17:10:24.184Z,20.93
2022-11-13T17:12:42.185Z,20.60
2022-11-13T17:15:09.765Z,21.77
2022-11-13T17:17:36.308Z,21.67
2022-11-13T17:20:03.077Z,21.77
2022-11-13T17:22:30.096Z,21.23
2022-11-13T17:24:56.708Z,22.17
2022-11-13T17:27:23.348Z,22.67
2022-11-13T17:29:49.892Z,23.63
2022-11-13T17:32:16.487Z,23.00
2022-11-13T17:34:43.846Z,22.60
2022-11-13T17:37:10.716Z,23.07
2022-11-13T17:39:37.337Z,23.30
2022-11-13T17:42:04.004Z,22.80
2022-11-13T17:44:30.607Z,23.33
2022-11-13T17:46:57.211Z,22.93
2022-11-13T17:49:23.807Z,21.93
2022-11-13T17:51:50.337Z,22.40
2022-11-13T17:54:17.382Z,22.47
2022-11-13T17:56:44.566Z,22.73
2022-11-13T17:59:11.486Z,21.00
2022-11-13T18:01:38.346Z,22.23
2022-11-13T18:04:05.230Z,24.37
2022-11-13T18:06:31.758Z,22.10
2022-11-13T18:08:58.646Z,21.17
2022-11-13T18:11:27.513Z,21.07
2022-11-13T18:13:54.389Z,22.80
2022-11-13T18:16:29.451Z,21.90
2022-11-13T18:18:57.886Z,22.30
2022-11-13T18:21:33.315Z,20.53
2022-11-13T18:24:11.532Z,21.70
2022-11-13T18:26:38.135Z,21.63
2022-11-13T18:29:04.959Z,20.07
2022-11-13T18:31:31.523Z,21.03
2022-11-13T18:33:59.540Z,19.23
2022-11-13T18:36:26.571Z,19.17
2022-11-13T18:38:53.273Z,19.37
2022-11-13T18:41:21.525Z,17.97
2022-11-13T18:43:50.263Z,18.33
2022-11-13T18:46:19.106Z,18.33
2022-11-13T18:48:47.229Z,19.13
2022-11-13T18:51:20.126Z,18.37
2022-11-13T18:53:48.889Z,18.40
2022-11-13T18:56:18.951Z,19.27
2022-11-13T18:58:47.668Z,19.00
2022-11-13T19:01:24.734Z,17.67
2022-11-13T19:04:20.914Z,23.40
2022-11-13T19:06:39.643Z,18.13
2022-11-13T19:09:10.718Z,18.87
2022-11-13T19:11:37.399Z,18.87
2022-11-13T19:14:04.137Z,19.53
2022-11-13T19:16:36.637Z,19.70
2022-11-13T19:19:07.040Z,19.63
2022-11-13T19:21:36.075Z,20.50
2022-11-13T19:24:03.019Z,19.63
2022-11-13T19:26:29.883Z,18.97
2022-11-13T19:28:57.029Z,18.23
2022-11-13T19:31:25.810Z,19.07
2022-11-13T19:33:59.885Z,17.33
2022-11-13T19:36:28.256Z,19.20
2022-11-13T19:38:55.820Z,18.00
2022-11-13T19:41:23.527Z,18.47
2022-11-13T19:43:50.455Z,18.30
2022-11-13T19:46:18.415Z,18.30
2022-11-13T19:48:47.126Z,18.30
2022-11-13T19:51:16.565Z,17.47
2022-11-13T19:53:46.228Z,18.53
2022-11-13T19:56:18.355Z,18.40
2022-11-13T19:58:46.907Z,18.07
2022-11-13T20:01:22.376Z,18.77
2022-11-13T20:04:00.270Z,18.57
2022-11-13T20:06:28.604Z,18.87
2022-11-13T20:08:55.508Z,17.60
2022-11-13T20:11:22.126Z,18.33
2022-11-13T20:13:48.821Z,17.97
2022-11-13T20:16:17.291Z,18.60
2022-11-13T20:18:44.455Z,18.57
2022-11-13T20:21:11.311Z,17.80
2022-11-13T20:23:38.695Z,18.07
2022-11-13T20:26:11.805Z,17.87
2022-11-13T20:28:38.333Z,17.87
2022-11-13T20:31:07.296Z,18.07
2022-11-13T20:33:35.048Z,17.60
2022-11-13T20:36:02.975Z,17.13
2022-11-13T20:38:30.154Z,16.83
2022-11-13T20:40:57.282Z,17.67
2022-11-13T20:43:24.039Z,17.07
2022-11-13T20:45:50.621Z,17.37
2022-11-13T20:48:17.192Z,17.80
2022-11-13T20:50:43.774Z,17.63
2022-11-13T20:53:10.306Z,18.33
2022-11-13T20:55:36.865Z,18.43
2022-11-13T20:58:03.396Z,16.90
2022-11-13T21:00:30.029Z,18.60
2022-11-13T21:02:56.646Z,18.40
2022-11-13T21:05:23.223Z,18.53
2022-11-13T21:07:52.741Z,18.00
2022-11-13T21:10:19.320Z,18.43
2022-11-13T21:12:46.234Z,18.70
2022-11-13T21:15:12.815Z,17.60
2022-11-13T21:17:39.520Z,18.93
2022-11-13T21:20:06.678Z,18.27
2022-11-13T21:22:33.283Z,18.97
2022-11-13T21:24:59.829Z,19.73
2022-11-13T21:27:26.463Z,19.57
2022-11-13T21:29:53.819Z,20.33
2022-11-13T21:32:20.384Z,19.93
2022-11-13T21:34:46.996Z,20.23
2022-11-13T21:37:14.376Z,22.10
2022-11-13T21:39:46.932Z,21.17
2022-11-13T21:42:13.497Z,21.63
2022-11-13T21:44:40.023Z,22.77
2022-11-13T21:47:06.558Z,23.07
2022-11-13T21:49:33.097Z,24.60
2022-11-13T21:51:59.685Z,23.70
2022-11-13T21:54:26.215Z,23.33
2022-11-13T21:56:52.750Z,25.07
2022-11-13T21:59:19.269Z,24.80
2022-11-13T22:01:46.094Z,24.77
2022-11-13T22:04:12.908Z,26.67
2022-11-13T22:06:39.689Z,27.07
2022-11-13T22:09:13.152Z,27.03
2022-11-13T22:11:40.283Z,26.93
2022-11-13T22:14:07.015Z,28.13
2022-11-13T22:16:35.917Z,27.90
2022-11-13T22:19:04.870Z,28.77
2022-11-13T22:21:32.147Z,28.17
2022-11-13T22:23:59.921Z,28.13
2022-11-13T22:26:27.881Z,28.50
2022-11-13T22:28:55.678Z,31.13
2022-11-13T22:31:28.549Z,29.90
2022-11-13T22:33:55.736Z,27.53
2022-11-13T22:36:27.854Z,32.03
2022-11-13T22:38:55.041Z,30.37
2022-11-13T22:41:24.351Z,31.10
2022-11-13T22:43:53.423Z,30.73
2022-11-13T22:46:22.418Z,29.17
2022-11-13T22:48:51.008Z,32.23
2022-11-13T22:51:23.319Z,31.53
2022-11-13T22:54:01.117Z,31.27
2022-11-13T22:56:30.028Z,30.50
2022-11-13T22:58:58.310Z,30.43
2022-11-13T23:01:29.783Z,28.87
2022-11-13T23:03:58.040Z,31.73
2022-11-13T23:06:27.094Z,30.70
2022-11-13T23:08:54.467Z,31.23
2022-11-13T23:11:33.202Z,33.03
2022-11-13T23:14:05.514Z,31.53
2022-11-13T23:16:33.002Z,32.57
2022-11-13T23:19:01.005Z,33.87
2022-11-13T23:21:29.311Z,32.33
2022-11-13T23:23:56.705Z,29.53
2022-11-13T23:26:24.445Z,33.37
2022-11-13T23:28:51.010Z,32.53
2022-11-13T23:31:17.749Z,31.80
2022-11-13T23:33:44.318Z,35.07
2022-11-13T23:36:12.381Z,32.17
2022-11-13T23:38:39.108Z,29.87
2022-11-13T23:41:05.751Z,32.37
2022-11-13T23:44:06.512Z,32.77
2022-11-13T23:46:19.962Z,32.60
2022-11-13T23:48:46.629Z,33.73
2022-11-13T23:51:13.162Z,33.40
2022-11-13T23:53:39.685Z,32.80
2022-11-13T23:56:06.800Z,33.50
2022-11-13T23:58:33.689Z,33.63
